Time;durP1;ratioP1;P1;durP2;ratioP2;P2;SDS_P1;SDS_P2;PMS_P1;PMS_P2;Temp;Humidity;BMP_temperature;BMP_pressure;BME280_temperature;BME280_humidity;BME280_pressure;Samples;Min_cycle;Max_cycle;Signal;HPM_P1;HPM_P2
2022/10/13 00:00:40;;;;;;;21.98;15.85;;;;;;;15.55;100.00;99076.19;5029580;28;20028;-58
2022/10/13 00:03:05;;;;;;;22.70;16.20;;;;;;;15.58;100.00;99081.13;5099243;28;20035;-59
2022/10/13 00:05:31;;;;;;;23.05;15.90;;;;;;;15.57;100.00;99066.41;5093531;28;20091;-59
2022/10/13 00:07:57;;;;;;;22.83;15.93;;;;;;;15.61;100.00;99069.50;5092348;28;20039;-59
2022/10/13 00:10:23;;;;;;;23.45;15.80;;;;;;;15.58;100.00;99071.44;5090109;28;20038;-59
2022/10/13 00:12:49;;;;;;;23.58;16.23;;;;;;;15.49;100.00;99053.28;5091661;28;20077;-59
2022/10/13 00:15:15;;;;;;;28.75;17.15;;;;;;;15.60;100.00;99063.41;5087547;28;20035;-59
2022/10/13 00:17:40;;;;;;;23.80;16.23;;;;;;;15.61;100.00;99059.00;5097079;27;20267;-59
2022/10/13 00:20:07;;;;;;;26.05;16.80;;;;;;;15.62;100.00;99056.19;5039184;28;20031;-58
2022/10/13 00:22:32;;;;;;;23.92;16.77;;;;;;;15.68;100.00;99065.19;5094742;28;20115;-59
2022/10/13 00:24:57;;;;;;;24.92;16.20;;;;;;;15.61;100.00;99061.63;5086752;28;20040;-59
2022/10/13 00:27:23;;;;;;;21.67;15.98;;;;;;;15.61;100.00;99053.78;5089989;28;20405;-59
2022/10/13 00:29:49;;;;;;;21.92;15.98;;;;;;;15.68;100.00;99065.19;5095054;28;20077;-59
2022/10/13 00:32:14;;;;;;;22.00;15.57;;;;;;;15.66;100.00;99062.78;5085558;28;20035;-58
2022/10/13 00:34:40;;;;;;;21.98;16.00;;;;;;;15.41;100.00;99027.91;5083966;28;20696;-59
2022/10/13 00:37:06;;;;;;;20.13;15.50;;;;;;;15.66;100.00;99067.19;5092972;28;20059;-59
2022/10/13 00:39:32;;;;;;;22.30;15.73;;;;;;;15.64;100.00;99062.09;5030917;28;21791;-59
2022/10/13 00:41:58;;;;;;;22.63;15.55;;;;;;;15.63;100.00;99057.84;5097981;28;20089;-59
2022/10/13 00:44:58;;;;;;;21.15;15.05;;;;;;;15.65;100.00;99061.13;5091340;27;20028;-59
2022/10/13 00:47:26;;;;;;;21.73;14.55;;;;;;;15.46;100.00;99035.25;5088507;28;20047;-59
2022/10/13 00:49:53;;;;;;;21.50;16.23;;;;;;;15.36;100.00;99017.09;5090130;28;20268;-59
2022/10/13 00:52:20;;;;;;;22.88;16.35;;;;;;;15.66;100.00;99043.59;5084117;28;20032;-59
2022/10/13 00:54:50;;;;;;;23.00;16.23;;;;;;;15.68;100.00;99052.09;5089122;28;20037;-59
2022/10/13 00:57:17;;;;;;;24.70;16.75;;;;;;;15.67;100.00;99053.91;5086391;28;20040;-59
2022/10/13 00:59:42;;;;;;;19.38;14.52;;;;;;;15.70;100.00;99042.28;5027991;28;20552;-59
2022/10/13 01:02:08;;;;;;;22.63;16.02;;;;;;;15.70;100.00;99037.84;5091654;28;20035;-59
2022/10/13 01:04:38;;;;;;;22.08;14.38;;;;;;;15.64;100.00;99032.44;5092110;27;20092;-59
2022/10/13 01:07:14;;;;;;;22.38;15.40;;;;;;;15.61;100.00;99031.00;5094694;27;20023;-57
2022/10/13 01:10:00;;;;;;;22.73;17.00;;;;;;;15.49;100.00;99038.38;5091792;28;20016;-59
2022/10/13 01:12:32;;;;;;;23.17;15.63;;;;;;;15.22;100.00;99007.28;5093668;28;20086;-59
2022/10/13 01:15:08;;;;;;;19.63;15.27;;;;;;;15.25;100.00;99036.59;5089831;28;20692;-57
2022/10/13 01:17:43;;;;;;;21.77;16.50;;;;;;;15.23;100.00;99043.00;5090133;28;20036;-59
2022/10/13 01:20:38;;;;;;;28.67;16.15;;;;;;;15.28;100.00;99043.31;5034128;28;21767;-59
2022/10/13 01:23:35;;;;;;;20.75;14.48;;;;;;;15.32;100.00;99050.69;5092188;28;20024;-59
2022/10/13 01:26:29;;;;;;;20.38;15.18;;;;;;;15.29;100.00;99060.66;5072588;28;20063;-59
2022/10/13 01:29:16;;;;;;;20.67;15.60;;;;;;;15.28;100.00;99046.75;5088552;28;20024;-59
2022/10/13 01:32:01;;;;;;;24.60;15.35;;;;;;;15.38;100.00;99047.38;5089732;28;20644;-59
2022/10/13 01:34:45;;;;;;;20.73;15.32;;;;;;;15.42;100.00;99047.88;5091821;28;20363;-59
2022/10/13 01:37:33;;;;;;;21.98;14.90;;;;;;;15.42;100.00;99047.06;5085141;28;20039;-59
2022/10/13 01:40:20;;;;;;;21.13;15.52;;;;;;;15.35;100.00;99054.75;5032023;28;20051;-59
2022/10/13 01:42:56;;;;;;;22.35;16.05;;;;;;;15.39;100.00;99053.47;5096177;28;20566;-59
2022/10/13 01:45:29;;;;;;;20.63;15.38;;;;;;;15.34;100.00;99056.56;5096499;28;20458;-58
2022/10/13 01:47:55;;;;;;;21.50;15.55;;;;;;;15.30;100.00;99043.97;5073872;28;20545;-59
2022/10/13 01:50:39;;;;;;;19.00;14.27;;;;;;;15.27;100.00;99046.91;5090411;28;20049;-59
2022/10/13 01:53:05;;;;;;;20.20;14.88;;;;;;;15.35;100.00;99050.34;5086289;28;20031;-59
2022/10/13 01:55:30;;;;;;;24.08;16.02;;;;;;;15.33;100.00;99046.25;5088717;28;20039;-59
2022/10/13 01:57:56;;;;;;;22.42;15.57;;;;;;;15.29;100.00;99052.81;5032925;28;20125;-59
2022/10/13 02:00:22;;;;;;;21.98;15.85;;;;;;;15.33;100.00;99057.56;5097715;28;20561;-59
2022/10/13 02:03:01;;;;;;;22.30;16.13;;;;;;;15.32;100.00;99050.69;5076291;28;20036;-59
2022/10/13 02:05:50;;;;;;;21.48;14.63;;;;;;;15.08;100.00;99020.06;5093252;28;20109;-59
2022/10/13 02:08:46;;;;;;;24.25;15.93;;;;;;;15.40;100.00;99049.84;5095356;28;20034;-60
2022/10/13 02:11:15;;;;;;;23.60;15.90;;;;;;;15.39;100.00;99045.59;5071562;27;20412;-59
2022/10/13 02:13:48;;;;;;;23.63;15.52;;;;;;;15.33;100.00;99043.63;5088456;27;20742;-59
2022/10/13 02:16:14;;;;;;;21.55;14.98;;;;;;;15.33;100.00;99044.47;5085007;28;20089;-59
2022/10/13 02:18:40;;;;;;;21.00;14.98;;;;;;;15.39;100.00;99035.13;5036943;28;20028;-59
2022/10/13 02:21:06;;;;;;;22.52;15.38;;;;;;;15.34;100.00;99032.97;5080330;28;20778;-59
2022/10/13 02:23:31;;;;;;;22.90;15.32;;;;;;;15.27;100.00;99018.09;5091881;28;20085;-59
2022/10/13 02:25:58;;;;;;;20.80;14.15;;;;;;;15.32;100.00;99021.03;5088535;28;20102;-59
2022/10/13 02:28:24;;;;;;;21.90;14.95;;;;;;;15.36;100.00;99017.91;5099664;28;20024;-59
2022/10/13 02:30:50;;;;;;;20.40;14.85;;;;;;;15.33;100.00;99020.88;5093904;28;20028;-59
2022/10/13 02:33:15;;;;;;;21.73;15.27;;;;;;;15.27;100.00;99010.25;5096666;28;20488;-59
2022/10/13 02:35:41;;;;;;;19.15;14.43;;;;;;;15.26;100.00;98990.25;5090319;28;20028;-59
2022/10/13 02:38:07;;;;;;;18.85;14.40;;;;;;;15.06;100.00;98964.41;5099861;28;20070;-59
2022/10/13 02:40:32;;;;;;;19.98;15.02;;;;;;;15.29;100.00;98998.59;5031836;28;20023;-57
2022/10/13 02:42:58;;;;;;;21.70;14.48;;;;;;;14.94;100.00;98929.88;5095343;28;20039;-58
2022/10/13 02:45:24;;;;;;;19.10;14.57;;;;;;;15.35;100.00;98978.78;5089398;27;20023;-58
2022/10/13 02:47:49;;;;;;;19.38;14.48;;;;;;;15.33;100.00;98978.13;5096711;27;20146;-58
2022/10/13 02:50:15;;;;;;;19.15;14.02;;;;;;;15.33;100.00;98978.13;5093721;28;20028;-58
2022/10/13 02:52:40;;;;;;;20.17;13.45;;;;;;;15.27;100.00;98973.56;5093666;28;20077;-57
2022/10/13 02:55:06;;;;;;;20.40;15.18;;;;;;;15.24;100.00;98973.88;5094765;28;20031;-57
2022/10/13 02:57:31;;;;;;;21.27;12.85;;;;;;;15.03;100.00;98940.38;5096849;28;20495;-57
2022/10/13 02:59:57;;;;;;;19.88;13.95;;;;;;;15.13;100.00;98972.41;5075239;28;20031;-58
2022/10/13 03:02:22;;;;;;;21.83;15.05;;;;;;;14.89;100.00;98947.88;5060214;28;20024;-58
2022/10/13 03:04:48;;;;;;;22.65;14.55;;;;;;;14.80;100.00;98936.63;5092787;28;20051;-58
2022/10/13 03:07:14;;;;;;;20.42;13.43;;;;;;;15.09;100.00;98978.97;5089081;28;20024;-58
2022/10/13 03:09:39;;;;;;;19.73;13.73;;;;;;;15.23;100.00;98990.59;5090352;28;20790;-58
2022/10/13 03:12:05;;;;;;;21.40;14.07;;;;;;;15.04;100.00;98992.56;5089428;28;20557;-58
2022/10/13 03:14:30;;;;;;;20.10;14.30;;;;;;;14.78;100.00;98951.66;5091092;28;20105;-58
2022/10/13 03:16:56;;;;;;;20.80;14.55;;;;;;;15.00;100.00;98980.78;5090012;28;20015;-58
2022/10/13 03:19:21;;;;;;;20.63;14.20;;;;;;;14.96;100.00;98974.22;5098068;28;20032;-58
2022/10/13 03:21:47;;;;;;;18.95;13.95;;;;;;;14.93;100.00;98972.78;5026465;27;20031;-58
2022/10/13 03:24:12;;;;;;;21.45;13.98;;;;;;;15.02;100.00;98985.84;5103749;27;20053;-58
2022/10/13 03:26:37;;;;;;;20.13;13.80;;;;;;;15.07;100.00;98976.50;5094814;27;20031;-58
2022/10/13 03:29:03;;;;;;;18.13;12.70;;;;;;;14.83;100.00;98966.88;5089935;28;20043;-58
2022/10/13 03:31:29;;;;;;;18.35;12.63;;;;;;;14.78;100.00;98959.53;5088671;28;20032;-59
2022/10/13 03:33:54;;;;;;;19.30;13.35;;;;;;;14.73;100.00;98943.47;5092933;28;20024;-58
2022/10/13 03:36:19;;;;;;;18.10;12.77;;;;;;;14.96;100.00;98982.09;5087583;28;20016;-59
2022/10/13 03:38:45;;;;;;;17.67;12.75;;;;;;;15.01;100.00;98973.75;5094018;28;20106;-59
2022/10/13 03:41:13;;;;;;;19.38;13.18;;;;;;;15.03;100.00;98982.25;5046343;28;21242;-58
2022/10/13 03:43:39;;;;;;;23.67;13.48;;;;;;;15.01;100.00;98982.41;5078926;27;20059;-58
2022/10/13 03:46:06;;;;;;;18.98;13.18;;;;;;;14.96;100.00;98971.63;5092262;28;20028;-58
2022/10/13 03:48:32;;;;;;;19.05;13.02;;;;;;;14.95;100.00;98981.28;5089513;28;20048;-58
2022/10/13 03:50:58;;;;;;;16.95;12.90;;;;;;;14.93;100.00;98979.78;5096395;28;20725;-58
2022/10/13 03:53:24;;;;;;;20.33;13.65;;;;;;;14.67;100.00;98930.22;5085180;27;20024;-59
2022/10/13 03:55:54;;;;;;;19.58;13.73;;;;;;;14.86;100.00;98953.47;5104522;27;20847;-58
2022/10/13 03:58:20;;;;;;;20.75;13.90;;;;;;;14.97;100.00;98976.69;5089854;28;20483;-59
2022/10/13 04:00:46;;;;;;;18.70;13.10;;;;;;;14.97;100.00;98976.69;5073590;28;21030;-59
2022/10/13 04:03:12;;;;;;;21.38;13.50;;;;;;;15.07;100.00;98978.31;5065367;27;20023;-58
2022/10/13 04:05:37;;;;;;;18.95;13.63;;;;;;;14.96;100.00;98951.47;5092039;27;20063;-58
2022/10/13 04:08:04;;;;;;;18.25;13.18;;;;;;;15.06;100.00;98976.69;5087444;28;20032;-58
2022/10/13 04:10:29;;;;;;;17.77;13.48;;;;;;;15.08;100.00;98972.94;5078463;28;20222;-59
2022/10/13 04:12:55;;;;;;;20.83;14.13;;;;;;;15.12;100.00;98969.00;5092002;28;20462;-59
2022/10/13 04:15:21;;;;;;;20.05;13.50;;;;;;;15.09;100.00;98969.31;5085880;28;20111;-58
2022/10/13 04:17:46;;;;;;;17.25;13.23;;;;;;;14.90;100.00;98927.78;5084756;28;20110;-58
2022/10/13 04:20:12;;;;;;;19.85;13.18;;;;;;;15.16;100.00;98967.66;5094018;28;20030;-59
2022/10/13 04:22:37;;;;;;;19.55;13.32;;;;;;;15.15;100.00;98963.44;5042107;28;20081;-58
2022/10/13 04:25:03;;;;;;;18.20;12.93;;;;;;;15.13;100.00;98959.31;5093163;28;20493;-58
2022/10/13 04:27:29;;;;;;;18.10;12.82;;;;;;;15.12;100.00;98960.31;5081624;28;20026;-59
2022/10/13 04:29:55;;;;;;;23.33;14.15;;;;;;;15.07;100.00;98958.19;5095325;28;20023;-58
2022/10/13 04:32:21;;;;;;;21.35;13.85;;;;;;;15.08;100.00;98969.50;5091210;28;20023;-59
2022/10/13 04:34:46;;;;;;;22.67;14.57;;;;;;;15.16;100.00;98959.81;5089762;28;20024;-59
2022/10/13 04:37:11;;;;;;;19.17;13.68;;;;;;;15.03;100.00;98928.09;5087721;28;20043;-59
2022/10/13 04:39:37;;;;;;;19.20;13.88;;;;;;;14.99;100.00;98918.94;5095002;28;20611;-58
2022/10/13 04:42:02;;;;;;;19.60;13.02;;;;;;;15.17;100.00;98964.06;5060169;28;20114;-58
2022/10/13 04:44:28;;;;;;;20.38;14.43;;;;;;;15.23;100.00;98970.44;5072041;28;20027;-58
2022/10/13 04:46:53;;;;;;;18.40;13.57;;;;;;;15.19;100.00;98948.19;5087984;28;20081;-58
2022/10/13 04:49:19;;;;;;;18.08;13.65;;;;;;;15.25;100.00;98957.19;5094355;28;20741;-58
2022/10/13 04:51:44;;;;;;;20.58;14.32;;;;;;;15.18;100.00;98960.47;5095530;28;20116;-58
2022/10/13 04:54:09;;;;;;;18.73;13.57;;;;;;;15.20;100.00;98965.53;5093041;28;20594;-59
2022/10/13 04:56:35;;;;;;;19.00;13.70;;;;;;;15.22;100.00;98966.19;5090445;28;20035;-58
2022/10/13 04:59:04;;;;;;;22.80;14.85;;;;;;;15.13;100.00;98960.16;5088886;28;20031;-58
2022/10/13 05:01:30;;;;;;;21.98;14.75;;;;;;;15.18;100.00;98960.47;5094970;28;20714;-59
2022/10/13 05:04:00;;;;;;;19.20;14.38;;;;;;;15.11;100.00;98962.13;5027825;27;20120;-58
2022/10/13 05:06:29;;;;;;;23.95;14.52;;;;;;;15.04;100.00;98958.53;5089322;28;20036;-59
2022/10/13 05:08:55;;;;;;;20.98;14.80;;;;;;;15.15;100.00;98967.81;5096928;28;20020;-58
2022/10/13 05:11:21;;;;;;;22.17;14.13;;;;;;;15.13;100.00;98967.19;5094971;28;20027;-58
2022/10/13 05:13:47;;;;;;;20.25;14.18;;;;;;;15.10;100.00;98960.47;5091628;28;20035;-58
2022/10/13 05:16:15;;;;;;;20.40;14.38;;;;;;;15.04;100.00;98955.06;5093868;28;20028;-58
2022/10/13 05:18:40;;;;;;;21.30;13.70;;;;;;;15.17;100.00;98958.84;5093828;28;20084;-58
2022/10/13 05:21:07;;;;;;;18.85;14.15;;;;;;;15.15;100.00;98962.59;5094301;28;20032;-58
2022/10/13 05:23:32;;;;;;;20.58;13.27;;;;;;;15.13;100.00;98957.53;5050295;28;20106;-58
2022/10/13 05:26:06;;;;;;;20.42;13.38;;;;;;;15.15;100.00;98954.72;5088238;28;20039;-58
2022/10/13 05:28:32;;;;;;;20.65;14.25;;;;;;;14.89;100.00;98913.84;5086444;28;20020;-58
2022/10/13 05:31:14;;;;;;;19.00;13.70;;;;;;;15.19;100.00;98951.63;5097721;28;20536;-59
2022/10/13 05:33:40;;;;;;;18.52;14.05;;;;;;;15.21;100.00;98948.84;5093232;28;20184;-58
2022/10/13 05:36:09;;;;;;;19.52;13.70;;;;;;;15.13;100.00;98935.75;5088261;27;20840;-58
2022/10/13 05:38:36;;;;;;;21.48;14.10;;;;;;;14.99;100.00;98911.88;5098514;27;20441;-58
2022/10/13 05:41:06;;;;;;;20.55;13.18;;;;;;;15.16;100.00;98944.09;5089959;28;20110;-59
2022/10/13 05:43:32;;;;;;;22.55;13.70;;;;;;;15.19;100.00;98945.59;5096133;27;20032;-58
2022/10/13 05:45:59;;;;;;;18.77;12.95;;;;;;;15.21;100.00;98946.22;5100554;28;20032;-57
2022/10/13 05:48:25;;;;;;;18.00;12.27;;;;;;;15.16;100.00;98945.91;5091522;28;20031;-59
2022/10/13 05:50:52;;;;;;;17.58;13.32;;;;;;;15.13;100.00;98936.59;5098405;28;20115;-58
2022/10/13 05:53:17;;;;;;;23.50;14.38;;;;;;;15.12;100.00;98944.59;5105193;27;20032;-58
2022/10/13 05:55:43;;;;;;;19.75;13.35;;;;;;;15.07;100.00;98944.28;5102752;28;20073;-59
2022/10/13 05:58:08;;;;;;;22.65;13.85;;;;;;;15.15;100.00;98946.88;5092459;27;20036;-59
2022/10/13 06:00:34;;;;;;;21.85;13.82;;;;;;;15.16;100.00;98964.25;5096627;28;20035;-58
2022/10/13 06:03:06;;;;;;;19.98;13.45;;;;;;;15.13;100.00;98956.72;5088481;28;20035;-58
2022/10/13 06:05:32;;;;;;;18.27;13.50;;;;;;;15.10;100.00;98960.47;5091637;28;20058;-58
2022/10/13 06:07:58;;;;;;;18.38;13.40;;;;;;;15.04;100.00;98953.31;5098631;28;20043;-58
2022/10/13 06:10:24;;;;;;;24.30;13.55;;;;;;;15.12;100.00;98962.94;5090405;27;20123;-60
2022/10/13 06:12:49;;;;;;;24.20;14.20;;;;;;;15.15;100.00;98971.28;5098404;28;20552;-58
2022/10/13 06:15:14;;;;;;;20.73;13.63;;;;;;;15.19;100.00;98963.91;5085642;28;20613;-59
2022/10/13 06:17:40;;;;;;;22.85;13.38;;;;;;;15.12;100.00;98962.94;5083251;28;20095;-58
2022/10/13 06:20:07;;;;;;;20.35;13.80;;;;;;;14.92;100.00;98931.84;5088909;28;20232;-58
2022/10/13 06:22:33;;;;;;;16.98;12.75;;;;;;;15.07;100.00;98962.63;5071430;28;20499;-58
2022/10/13 06:24:59;;;;;;;18.90;13.27;;;;;;;15.14;100.00;98977.50;5110490;27;20066;-58
2022/10/13 06:27:24;;;;;;;18.27;13.07;;;;;;;15.11;100.00;98979.63;5095241;28;20783;-59
2022/10/13 06:29:50;;;;;;;17.23;11.80;;;;;;;15.10;100.00;98984.06;5086505;28;20036;-58
2022/10/13 06:32:15;;;;;;;18.55;12.18;;;;;;;15.07;100.00;98984.38;5086524;28;20035;-59
2022/10/13 06:34:41;;;;;;;19.92;13.63;;;;;;;14.73;100.00;98940.88;5095777;28;20028;-58
2022/10/13 06:37:06;;;;;;;17.98;12.90;;;;;;;14.98;100.00;98977.50;5093280;28;20055;-58
2022/10/13 06:39:32;;;;;;;19.48;12.00;;;;;;;14.91;100.00;98950.34;5044674;28;20035;-58
2022/10/13 06:41:57;;;;;;;21.38;13.18;;;;;;;15.14;100.00;98980.13;5096452;28;20039;-58
2022/10/13 06:44:22;;;;;;;17.23;11.85;;;;;;;15.09;100.00;98971.13;5093002;28;20039;-58
2022/10/13 06:46:48;;;;;;;19.35;12.00;;;;;;;14.90;100.00;98951.34;5094974;28;20024;-58
2022/10/13 06:49:13;;;;;;;16.83;12.43;;;;;;;14.90;100.00;98946.91;5099817;27;20396;-59
2022/10/13 06:51:39;;;;;;;17.58;12.70;;;;;;;15.18;100.00;98985.84;5099362;28;20494;-59
2022/10/13 06:54:04;;;;;;;17.40;12.27;;;;;;;15.08;100.00;98975.56;5077899;28;20572;-58
2022/10/13 06:56:30;;;;;;;15.65;11.63;;;;;;;15.19;100.00;98977.00;5094431;28;20412;-58
2022/10/13 06:58:56;;;;;;;17.33;11.85;;;;;;;15.23;100.00;98978.31;5080569;28;20051;-58
2022/10/13 07:01:21;;;;;;;19.48;12.07;;;;;;;14.98;100.00;98939.03;5082578;28;20032;-59
2022/10/13 07:03:50;;;;;;;18.70;12.05;;;;;;;15.23;100.00;98978.31;5092578;28;20224;-58
2022/10/13 07:06:16;;;;;;;18.00;12.35;;;;;;;15.25;100.00;98972.91;5092086;28;20031;-58
2022/10/13 07:08:42;;;;;;;15.88;11.93;;;;;;;15.30;100.00;98979.28;5089490;28;20035;-58
2022/10/13 07:11:11;;;;;;;17.23;12.23;;;;;;;15.22;100.00;98978.47;5088524;28;20028;-58
2022/10/13 07:13:36;;;;;;;17.80;11.77;;;;;;;14.99;100.00;98939.88;5092882;28;20101;-58
2022/10/13 07:16:03;;;;;;;18.17;13.05;;;;;;;15.28;100.00;98975.22;5094130;27;20031;-59
2022/10/13 07:18:29;;;;;;;19.60;12.00;;;;;;;15.33;100.00;98959.78;5084962;27;20512;-58
2022/10/13 07:20:56;;;;;;;20.25;11.60;;;;;;;15.15;100.00;98942.47;5086392;28;20028;-58
2022/10/13 07:23:22;;;;;;;18.60;12.07;;;;;;;15.04;100.00;98921.03;5087069;28;20024;-58
2022/10/13 07:25:47;;;;;;;18.63;12.15;;;;;;;15.33;100.00;98967.66;5085021;28;20028;-58
2022/10/13 07:28:12;;;;;;;19.70;11.93;;;;;;;15.32;100.00;98966.84;5090437;27;20436;-58
2022/10/13 07:30:39;;;;;;;20.92;12.70;;;;;;;15.38;100.00;98967.97;5087121;28;20036;-58
2022/10/13 07:33:04;;;;;;;19.23;12.43;;;;;;;15.43;100.00;98964.88;5093128;27;20486;-58
2022/10/13 07:35:29;;;;;;;17.75;12.45;;;;;;;15.24;100.00;98937.22;5089415;28;20030;-58
2022/10/13 07:37:55;;;;;;;17.05;12.07;;;;;;;15.53;100.00;98974.19;5092673;28;20088;-58
2022/10/13 07:40:20;;;;;;;17.15;12.52;;;;;;;15.58;100.00;98974.47;5096847;28;20039;-58
2022/10/13 07:42:46;;;;;;;23.88;13.20;;;;;;;15.55;100.00;98968.75;5094878;28;20046;-58
2022/10/13 07:45:11;;;;;;;16.48;12.20;;;;;;;15.43;100.00;98965.66;5096375;28;20034;-58
2022/10/13 07:47:36;;;;;;;20.67;13.57;;;;;;;15.42;100.00;98971.06;5089392;28;20024;-58
2022/10/13 07:50:02;;;;;;;17.05;12.30;;;;;;;15.33;100.00;98975.50;5092668;28;20047;-58
2022/10/13 07:52:28;;;;;;;19.40;12.75;;;;;;;15.25;100.00;98986.81;5094885;27;20547;-59
2022/10/13 07:54:53;;;;;;;22.08;13.10;;;;;;;15.05;100.00;98956.72;5093128;28;20042;-58
2022/10/13 07:57:19;;;;;;;20.10;13.90;;;;;;;15.27;100.00;98991.91;5094084;28;20746;-58
2022/10/13 07:59:45;;;;;;;18.48;13.38;;;;;;;15.30;100.00;98981.91;5098448;28;20442;-59
2022/10/13 08:02:11;;;;;;;18.65;12.98;;;;;;;14.90;100.00;98927.78;4741689;27;21098;-58
2022/10/13 08:04:36;;;;;;;19.13;12.80;;;;;;;15.06;100.00;98948.72;5099871;28;20091;-58
2022/10/13 08:07:03;;;;;;;19.02;13.18;;;;;;;15.30;100.00;98968.81;5085892;28;20035;-56
2022/10/13 08:09:29;;;;;;;20.05;13.93;;;;;;;15.11;100.00;98930.72;5079248;27;20027;-58
2022/10/13 08:11:55;;;;;;;22.23;14.07;;;;;;;15.41;100.00;98967.66;5093107;28;20528;-58
2022/10/13 08:14:20;;;;;;;17.23;13.07;;;;;;;15.54;100.00;98975.00;5088496;28;20461;-58
2022/10/13 08:16:46;;;;;;;18.85;12.90;;;;;;;15.31;100.00;98940.81;5096634;28;20478;-59
2022/10/13 08:19:12;;;;;;;20.52;13.85;;;;;;;15.53;100.00;98982.03;5091867;28;20034;-59
2022/10/13 08:21:38;;;;;;;20.80;14.10;;;;;;;15.37;100.00;98948.00;5088193;28;20494;-59
2022/10/13 08:24:05;;;;;;;22.67;13.48;;;;;;;15.57;100.00;98975.47;5086064;28;20039;-58
2022/10/13 08:26:30;;;;;;;22.83;13.88;;;;;;;15.55;100.00;98969.59;5078632;28;20032;-58
2022/10/13 08:28:56;;;;;;;22.00;14.05;;;;;;;15.48;100.00;98960.75;5093600;28;20032;-59
2022/10/13 08:31:21;;;;;;;20.63;13.55;;;;;;;15.40;100.00;98941.59;5090189;28;20031;-58
2022/10/13 08:33:47;;;;;;;20.27;13.85;;;;;;;15.65;100.00;98969.38;5095486;28;20389;-58
2022/10/13 08:36:14;;;;;;;18.77;13.55;;;;;;;15.64;100.00;98967.72;5086731;28;20043;-59
2022/10/13 08:38:40;;;;;;;19.20;13.73;;;;;;;15.69;100.00;98969.84;5078603;28;20822;-59
2022/10/13 08:41:16;;;;;;;19.02;12.82;;;;;;;15.74;100.00;98964.97;5087676;28;20072;-59
2022/10/13 08:44:00;;;;;;;19.65;12.93;;;;;;;15.87;100.00;98967.84;5092219;28;20047;-58
2022/10/13 08:46:38;;;;;;;19.05;13.73;;;;;;;15.93;100.00;98959.34;5087850;28;20020;-58
2022/10/13 08:49:04;;;;;;;20.13;12.95;;;;;;;16.01;100.00;98957.63;5083776;28;20028;-58
2022/10/13 08:51:30;;;;;;;21.48;14.82;;;;;;;15.86;100.00;98926.91;5089965;28;20042;-58
2022/10/13 08:53:56;;;;;;;20.40;14.00;;;;;;;16.12;100.00;98962.53;5091283;28;20457;-58
2022/10/13 08:56:26;;;;;;;19.80;14.05;;;;;;;16.09;100.00;98960.22;5093483;28;20019;-58
2022/10/13 08:58:53;;;;;;;19.83;13.35;;;;;;;16.06;100.00;98960.56;5087796;28;20818;-58
2022/10/13 09:01:24;;;;;;;20.83;14.05;;;;;;;16.01;100.00;98971.59;5084368;28;20023;-58
2022/10/13 09:03:59;;;;;;;18.10;13.35;;;;;;;15.94;100.00;98971.44;5086922;28;20023;-58
2022/10/13 09:06:32;;;;;;;21.92;13.30;;;;;;;15.86;100.00;98965.41;5090143;28;20028;-59
2022/10/13 09:09:00;;;;;;;19.63;12.98;;;;;;;15.96;100.00;98968.66;5093477;28;20028;-58
2022/10/13 09:11:32;;;;;;;17.05;12.73;;;;;;;16.01;100.00;98971.59;5078698;28;20067;-58
2022/10/13 09:14:02;;;;;;;20.08;13.65;;;;;;;16.07;100.00;98965.66;5093527;28;20107;-58
2022/10/13 09:16:37;;;;;;;;;;;;;;;16.13;100.00;98957.06;5095842;28;20036;-58
2022/10/13 09:19:20;;;;;;;16.05;12.57;;;;;;;15.95;100.00;98915.41;5092919;28;19919;-58
2022/10/13 09:21:46;;;;;;;18.95;13.35;;;;;;;16.27;100.00;98954.72;5092553;28;20020;-58
2022/10/13 09:24:28;;;;;;;19.02;12.43;;;;;;;16.12;100.00;98913.50;4898601;28;21514;-58
2022/10/13 09:27:15;;;;;;;18.15;12.43;;;;;;;16.41;100.00;98950.53;4691130;28;21807;-57
2022/10/13 09:29:41;;;;;;;17.77;12.23;;;;;;;16.51;100.00;98956.38;5091946;28;20020;-57
2022/10/13 09:32:19;;;;;;;18.58;12.60;;;;;;;16.47;99.47;98921.78;5083347;28;20035;-57
2022/10/13 09:34:45;;;;;;;17.83;12.93;;;;;;;16.44;99.62;98906.38;5095194;28;20107;-57
2022/10/13 09:37:24;;;;;;;16.98;11.15;;;;;;;16.78;98.47;98925.34;5091022;28;20114;-57
2022/10/13 09:40:19;;;;;;;16.73;12.40;;;;;;;16.93;97.53;98922.78;5078079;28;20505;-58
2022/10/13 09:42:51;;;;;;;16.00;10.98;;;;;;;16.89;93.82;98912.63;5087241;28;20039;-58
2022/10/13 09:45:20;;;;;;;15.07;11.02;;;;;;;16.78;95.12;98888.59;5088793;28;20866;-58
2022/10/13 09:48:06;;;;;;;15.88;11.68;;;;;;;16.93;94.38;98902.56;5072506;28;20085;-58
2022/10/13 09:50:33;;;;;;;18.42;11.93;;;;;;;17.05;93.93;98908.22;5096895;28;20063;-58
2022/10/13 09:53:20;;;;;;;17.05;11.75;;;;;;;17.23;92.63;98913.13;5095208;28;20239;-58
2022/10/13 09:55:47;;;;;;;16.42;11.63;;;;;;;17.17;90.17;98904.13;5087873;28;20059;-58
2022/10/13 09:58:22;;;;;;;16.73;11.30;;;;;;;17.25;90.45;98905.88;5086331;28;20085;-58
2022/10/13 10:00:49;;;;;;;17.15;11.82;;;;;;;17.42;88.40;98902.06;5089756;28;20051;-58
2022/10/13 10:03:28;;;;;;;21.58;12.82;;;;;;;17.45;86.77;98887.75;5087630;28;20432;-58
2022/10/13 10:05:55;;;;;;;19.30;11.43;;;;;;;17.62;87.79;98901.53;5071112;28;20042;-57
2022/10/13 10:08:56;;;;;;;25.98;17.50;;;;;;;17.47;87.75;98862.91;5083940;28;20020;-58
2022/10/13 10:11:36;;;;;;;28.65;18.27;;;;;;;17.86;86.53;98905.69;5079320;28;20028;-58
2022/10/13 10:14:24;;;;;;;30.08;18.83;;;;;;;17.96;85.65;98902.75;5069053;28;20123;-57
2022/10/13 10:17:04;;;;;;;30.63;19.98;;;;;;;17.72;83.94;98861.78;5089045;28;20032;-58
2022/10/13 10:20:09;;;;;;;28.10;19.10;;;;;;;18.04;84.29;98894.75;5082034;28;20039;-58
2022/10/13 10:22:59;;;;;;;28.30;18.77;;;;;;;18.11;84.48;98895.66;5085674;28;20030;-58
2022/10/13 10:25:33;;;;;;;25.75;18.13;;;;;;;18.12;85.59;98902.53;5084514;28;20034;-58
2022/10/13 10:28:13;;;;;;;28.02;18.52;;;;;;;18.11;85.24;98898.28;5085273;28;20463;-58
2022/10/13 10:30:46;;;;;;;26.85;17.20;;;;;;;18.17;84.83;98894.91;5083563;28;20028;-58
2022/10/13 10:33:17;;;;;;;25.75;17.50;;;;;;;18.22;83.57;98892.53;5083133;28;20409;-58
2022/10/13 10:36:03;;;;;;;29.27;18.85;;;;;;;18.17;80.71;98891.47;5076213;28;20282;-58
2022/10/13 10:38:50;;;;;;;30.38;19.08;;;;;;;18.27;80.83;98894.56;5086329;28;20122;-57
2022/10/13 10:41:25;;;;;;;32.13;20.48;;;;;;;18.24;79.96;98890.53;5073425;28;20055;-57
2022/10/13 10:44:06;;;;;;;27.65;18.27;;;;;;;18.34;82.96;98892.81;5084920;28;20020;-57
2022/10/13 10:46:35;;;;;;;29.25;18.80;;;;;;;18.21;83.71;98850.59;5101511;27;20032;-58
2022/10/13 10:49:03;;;;;;;27.88;18.05;;;;;;;18.28;83.82;98859.38;5082904;28;20038;-58
2022/10/13 10:51:32;;;;;;;26.90;16.97;;;;;;;18.13;85.16;98872.59;5091136;28;20039;-58
2022/10/13 10:54:07;;;;;;;22.42;15.95;;;;;;;18.20;86.12;98880.56;5091162;28;20076;-58
2022/10/13 10:56:36;;;;;;;23.38;16.63;;;;;;;18.08;84.82;98877.59;5083588;28;20990;-59
2022/10/13 10:59:10;;;;;;;23.33;17.20;;;;;;;17.91;85.29;98847.28;5090143;27;20718;-57
2022/10/13 11:01:48;;;;;;;26.02;17.45;;;;;;;18.09;86.04;98863.47;5083396;28;20036;-58
2022/10/13 11:04:27;;;;;;;26.65;17.23;;;;;;;18.16;86.87;98850.34;5075313;28;20039;-58
2022/10/13 11:06:53;;;;;;;22.08;15.55;;;;;;;18.16;86.56;98839.81;5072657;28;20035;-58
2022/10/13 11:09:41;;;;;;;23.25;15.95;;;;;;;18.21;86.02;98838.25;5081526;28;20205;-57
2022/10/13 11:12:18;;;;;;;25.52;16.38;;;;;;;17.99;84.76;98808.50;5079034;28;20031;-57
2022/10/13 11:14:54;;;;;;;22.90;16.35;;;;;;;18.22;85.28;98829.38;5077679;28;20024;-58
2022/10/13 11:17:30;;;;;;;53.03;20.45;;;;;;;18.29;83.21;98825.97;5082453;28;20036;-57
2022/10/13 11:19:56;;;;;;;36.28;17.75;;;;;;;18.34;84.08;98824.38;5078657;28;20028;-58
2022/10/13 11:22:29;;;;;;;31.40;18.92;;;;;;;18.40;81.93;98825.47;5084637;28;20276;-58